sensor_id;sensor_type;location;lat;lon;timestamp;pressure;altitude;pressure_sealevel;temperature;humidity
74790;BME280;63318;52.406;13.416;2023-04-29T00:02:20;100589.33;;;11.23;72.48
74790;BME280;63318;52.406;13.416;2023-04-29T00:04:48;100582.77;;;11.22;72.55
74790;BME280;63318;52.406;13.416;2023-04-29T00:07:16;100578.82;;;11.21;72.45
74790;BME280;63318;52.406;13.416;2023-04-29T00:09:44;100575.77;;;11.21;72.58
74790;BME280;63318;52.406;13.416;2023-04-29T00:12:12;100570.64;;;11.20;72.29
74790;BME280;63318;52.406;13.416;2023-04-29T00:14:41;100572.65;;;11.18;72.52
74790;BME280;63318;52.406;13.416;2023-04-29T00:17:09;100573.04;;;11.17;72.64
74790;BME280;63318;52.406;13.416;2023-04-29T00:19:37;100573.39;;;11.16;72.70
74790;BME280;63318;52.406;13.416;2023-04-29T00:22:06;100571.23;;;11.15;72.78
74790;BME280;63318;52.406;13.416;2023-04-29T00:24:34;100563.66;;;11.14;72.75
74790;BME280;63318;52.406;13.416;2023-04-29T00:27:02;100556.94;;;11.12;72.81
74790;BME280;63318;52.406;13.416;2023-04-29T00:29:30;100549.77;;;11.11;72.79
74790;BME280;63318;52.406;13.416;2023-04-29T00:31:59;100547.38;;;11.09;72.68
74790;BME280;63318;52.406;13.416;2023-04-29T00:34:27;100548.84;;;11.07;72.77
74790;BME280;63318;52.406;13.416;2023-04-29T00:36:55;100553.89;;;11.03;72.84
74790;BME280;63318;52.406;13.416;2023-04-29T00:39:23;100557.48;;;11.01;73.02
74790;BME280;63318;52.406;13.416;2023-04-29T00:41:52;100569.30;;;10.99;73.29
74790;BME280;63318;52.406;13.416;2023-04-29T00:44:20;100566.21;;;10.95;73.37
74790;BME280;63318;52.406;13.416;2023-04-29T00:46:48;100558.10;;;10.92;73.38
74790;BME280;63318;52.406;13.416;2023-04-29T00:49:16;100559.55;;;10.89;73.55
74790;BME280;63318;52.406;13.416;2023-04-29T00:51:45;100560.90;;;10.86;73.54
74790;BME280;63318;52.406;13.416;2023-04-29T00:54:13;100558.00;;;10.84;73.41
74790;BME280;63318;52.406;13.416;2023-04-29T00:56:45;100561.22;;;10.82;73.45
74790;BME280;63318;52.406;13.416;2023-04-29T00:59:14;100566.84;;;10.81;73.65
74790;BME280;63318;52.406;13.416;2023-04-29T01:01:43;100568.61;;;10.80;73.86
74790;BME280;63318;52.406;13.416;2023-04-29T01:04:11;100573.58;;;10.80;74.06
74790;BME280;63318;52.406;13.416;2023-04-29T01:06:48;100572.79;;;10.78;74.35
74790;BME280;63318;52.406;13.416;2023-04-29T01:09:31;100572.73;;;10.76;74.80
74790;BME280;63318;52.406;13.416;2023-04-29T01:12:10;100567.70;;;10.74;75.16
74790;BME280;63318;52.406;13.416;2023-04-29T01:14:50;100565.30;;;10.73;75.40
74790;BME280;63318;52.406;13.416;2023-04-29T01:17:24;100565.08;;;10.72;75.52
74790;BME280;63318;52.406;13.416;2023-04-29T01:19:57;100560.23;;;10.70;75.89
74790;BME280;63318;52.406;13.416;2023-04-29T01:22:25;100549.02;;;10.68;75.58
74790;BME280;63318;52.406;13.416;2023-04-29T01:24:54;100547.20;;;10.67;75.60
74790;BME280;63318;52.406;13.416;2023-04-29T01:27:30;100560.48;;;10.65;75.45
74790;BME280;63318;52.406;13.416;2023-04-29T01:30:07;100558.70;;;10.61;75.99
74790;BME280;63318;52.406;13.416;2023-04-29T01:32:45;100550.59;;;10.59;76.22
74790;BME280;63318;52.406;13.416;2023-04-29T01:35:32;100556.03;;;10.56;76.67
74790;BME280;63318;52.406;13.416;2023-04-29T01:38:16;100561.09;;;10.55;77.14
74790;BME280;63318;52.406;13.416;2023-04-29T01:40:48;100558.59;;;10.53;76.90
74790;BME280;63318;52.406;13.416;2023-04-29T01:43:22;100551.87;;;10.52;77.18
74790;BME280;63318;52.406;13.416;2023-04-29T01:45:50;100554.76;;;10.50;77.36
74790;BME280;63318;52.406;13.416;2023-04-29T01:48:20;100555.48;;;10.49;77.44
74790;BME280;63318;52.406;13.416;2023-04-29T01:50:48;100554.04;;;10.48;77.62
74790;BME280;63318;52.406;13.416;2023-04-29T01:53:16;100554.43;;;10.47;77.74
74790;BME280;63318;52.406;13.416;2023-04-29T01:55:45;100550.04;;;10.46;77.82
74790;BME280;63318;52.406;13.416;2023-04-29T01:58:13;100544.81;;;10.46;77.78
74790;BME280;63318;52.406;13.416;2023-04-29T02:00:41;100543.92;;;10.45;77.88
74790;BME280;63318;52.406;13.416;2023-04-29T02:03:10;100543.42;;;10.45;77.80
74790;BME280;63318;52.406;13.416;2023-04-29T02:05:38;100542.83;;;10.44;77.84
74790;BME280;63318;52.406;13.416;2023-04-29T02:08:06;100536.60;;;10.44;77.77
74790;BME280;63318;52.406;13.416;2023-04-29T02:10:34;100540.99;;;10.42;77.97
74790;BME280;63318;52.406;13.416;2023-04-29T02:13:03;100544.38;;;10.41;78.23
74790;BME280;63318;52.406;13.416;2023-04-29T02:15:31;100542.42;;;10.40;78.42
74790;BME280;63318;52.406;13.416;2023-04-29T02:17:59;100542.60;;;10.39;78.37
74790;BME280;63318;52.406;13.416;2023-04-29T02:20:27;100541.77;;;10.37;78.54
74790;BME280;63318;52.406;13.416;2023-04-29T02:22:55;100549.89;;;10.36;78.66
74790;BME280;63318;52.406;13.416;2023-04-29T02:25:23;100545.16;;;10.36;78.86
74790;BME280;63318;52.406;13.416;2023-04-29T02:27:52;100536.33;;;10.35;78.72
74790;BME280;63318;52.406;13.416;2023-04-29T02:30:20;100538.66;;;10.35;78.94
74790;BME280;63318;52.406;13.416;2023-04-29T02:32:48;100537.77;;;10.35;79.09
74790;BME280;63318;52.406;13.416;2023-04-29T02:35:17;100536.65;;;10.35;78.95
74790;BME280;63318;52.406;13.416;2023-04-29T02:37:45;100536.31;;;10.35;79.01
74790;BME280;63318;52.406;13.416;2023-04-29T02:40:13;100535.88;;;10.34;79.12
74790;BME280;63318;52.406;13.416;2023-04-29T02:42:42;100536.10;;;10.34;79.06
74790;BME280;63318;52.406;13.416;2023-04-29T02:45:11;100537.10;;;10.33;79.08
74790;BME280;63318;52.406;13.416;2023-04-29T02:47:39;100531.66;;;10.33;79.10
74790;BME280;63318;52.406;13.416;2023-04-29T02:50:09;100533.22;;;10.32;79.49
74790;BME280;63318;52.406;13.416;2023-04-29T02:52:37;100532.88;;;10.32;79.43
74790;BME280;63318;52.406;13.416;2023-04-29T02:55:06;100529.66;;;10.32;79.49
74790;BME280;63318;52.406;13.416;2023-04-29T02:57:34;100530.45;;;10.32;79.64
74790;BME280;63318;52.406;13.416;2023-04-29T03:00:03;100529.21;;;10.32;79.73
74790;BME280;63318;52.406;13.416;2023-04-29T03:02:31;100527.33;;;10.33;79.80
74790;BME280;63318;52.406;13.416;2023-04-29T03:05:00;100528.00;;;10.33;79.97
74790;BME280;63318;52.406;13.416;2023-04-29T03:07:28;100522.71;;;10.34;79.97
74790;BME280;63318;52.406;13.416;2023-04-29T03:09:56;100522.61;;;10.35;80.06
74790;BME280;63318;52.406;13.416;2023-04-29T03:12:24;100520.79;;;10.36;80.08
74790;BME280;63318;52.406;13.416;2023-04-29T03:14:53;100526.22;;;10.36;80.21
74790;BME280;63318;52.406;13.416;2023-04-29T03:17:21;100524.39;;;10.37;80.26
74790;BME280;63318;52.406;13.416;2023-04-29T03:19:49;100521.95;;;10.37;80.21
74790;BME280;63318;52.406;13.416;2023-04-29T03:22:18;100522.06;;;10.38;80.38
74790;BME280;63318;52.406;13.416;2023-04-29T03:24:46;100521.94;;;10.38;80.19
74790;BME280;63318;52.406;13.416;2023-04-29T03:27:14;100519.48;;;10.38;80.37
74790;BME280;63318;52.406;13.416;2023-04-29T03:29:42;100519.44;;;10.40;80.45
74790;BME280;63318;52.406;13.416;2023-04-29T03:32:10;100517.17;;;10.40;80.58
74790;BME280;63318;52.406;13.416;2023-04-29T03:34:39;100517.05;;;10.40;80.64
74790;BME280;63318;52.406;13.416;2023-04-29T03:37:07;100517.16;;;10.41;80.83
74790;BME280;63318;52.406;13.416;2023-04-29T03:39:35;100517.38;;;10.42;80.80
74790;BME280;63318;52.406;13.416;2023-04-29T03:42:04;100520.38;;;10.43;80.80
74790;BME280;63318;52.406;13.416;2023-04-29T03:44:33;100518.05;;;10.43;80.93
74790;BME280;63318;52.406;13.416;2023-04-29T03:47:01;100520.23;;;10.45;80.89
74790;BME280;63318;52.406;13.416;2023-04-29T03:49:29;100516.77;;;10.45;81.15
74790;BME280;63318;52.406;13.416;2023-04-29T03:51:57;100517.77;;;10.46;81.21
74790;BME280;63318;52.406;13.416;2023-04-29T03:54:26;100518.38;;;10.48;81.17
74790;BME280;63318;52.406;13.416;2023-04-29T03:56:54;100517.93;;;10.48;81.24
74790;BME280;63318;52.406;13.416;2023-04-29T03:59:22;100514.66;;;10.49;81.25
74790;BME280;63318;52.406;13.416;2023-04-29T04:01:50;100520.52;;;10.50;81.37
74790;BME280;63318;52.406;13.416;2023-04-29T04:04:19;100518.48;;;10.50;81.40
74790;BME280;63318;52.406;13.416;2023-04-29T04:06:47;100520.10;;;10.52;81.39
74790;BME280;63318;52.406;13.416;2023-04-29T04:09:16;100524.09;;;10.53;81.34
74790;BME280;63318;52.406;13.416;2023-04-29T04:11:44;100524.70;;;10.54;81.54
74790;BME280;63318;52.406;13.416;2023-04-29T04:14:12;100527.48;;;10.55;81.44
74790;BME280;63318;52.406;13.416;2023-04-29T04:16:41;100530.88;;;10.56;81.63
74790;BME280;63318;52.406;13.416;2023-04-29T04:19:09;100534.54;;;10.57;81.64
74790;BME280;63318;52.406;13.416;2023-04-29T04:21:38;100532.09;;;10.58;81.85
74790;BME280;63318;52.406;13.416;2023-04-29T04:24:07;100534.64;;;10.59;81.86
74790;BME280;63318;52.406;13.416;2023-04-29T04:26:35;100533.48;;;10.60;82.01
74790;BME280;63318;52.406;13.416;2023-04-29T04:29:04;100535.40;;;10.62;82.08
74790;BME280;63318;52.406;13.416;2023-04-29T04:31:33;100535.19;;;10.64;82.17
74790;BME280;63318;52.406;13.416;2023-04-29T04:34:01;100532.14;;;10.65;82.10
74790;BME280;63318;52.406;13.416;2023-04-29T04:36:29;100535.80;;;10.68;82.33
74790;BME280;63318;52.406;13.416;2023-04-29T04:38:58;100537.25;;;10.70;82.37
74790;BME280;63318;52.406;13.416;2023-04-29T04:41:27;100538.91;;;10.72;82.37
74790;BME280;63318;52.406;13.416;2023-04-29T04:43:55;100541.68;;;10.74;82.29
74790;BME280;63318;52.406;13.416;2023-04-29T04:46:23;100536.69;;;10.75;82.29
74790;BME280;63318;52.406;13.416;2023-04-29T04:48:52;100541.01;;;10.76;82.41
74790;BME280;63318;52.406;13.416;2023-04-29T04:51:20;100543.34;;;10.78;82.46
74790;BME280;63318;52.406;13.416;2023-04-29T04:53:48;100541.51;;;10.79;82.42
74790;BME280;63318;52.406;13.416;2023-04-29T04:56:16;100542.94;;;10.80;82.61
74790;BME280;63318;52.406;13.416;2023-04-29T04:58:45;100541.55;;;10.81;82.24
74790;BME280;63318;52.406;13.416;2023-04-29T05:01:13;100547.55;;;10.82;82.56
74790;BME280;63318;52.406;13.416;2023-04-29T05:03:41;100547.00;;;10.83;82.48
74790;BME280;63318;52.406;13.416;2023-04-29T05:06:09;100547.23;;;10.84;82.56
74790;BME280;63318;52.406;13.416;2023-04-29T05:08:38;100545.72;;;10.85;82.88
74790;BME280;63318;52.406;13.416;2023-04-29T05:11:06;100546.00;;;10.87;82.85
74790;BME280;63318;52.406;13.416;2023-04-29T05:13:42;100544.59;;;10.88;82.87
74790;BME280;63318;52.406;13.416;2023-04-29T05:16:11;100545.76;;;10.90;82.72
74790;BME280;63318;52.406;13.416;2023-04-29T05:18:39;100548.10;;;10.91;82.85
74790;BME280;63318;52.406;13.416;2023-04-29T05:21:07;100547.37;;;10.93;83.04
74790;BME280;63318;52.406;13.416;2023-04-29T05:23:36;100550.92;;;10.95;83.08
74790;BME280;63318;52.406;13.416;2023-04-29T05:26:04;100552.75;;;10.97;83.25
74790;BME280;63318;52.406;13.416;2023-04-29T05:28:32;100551.46;;;10.99;83.08
74790;BME280;63318;52.406;13.416;2023-04-29T05:31:00;100548.73;;;11.00;83.36
74790;BME280;63318;52.406;13.416;2023-04-29T05:33:29;100552.63;;;11.02;83.37
74790;BME280;63318;52.406;13.416;2023-04-29T05:35:57;100557.13;;;11.04;83.41
74790;BME280;63318;52.406;13.416;2023-04-29T05:38:25;100553.95;;;11.06;83.39
74790;BME280;63318;52.406;13.416;2023-04-29T05:40:54;100556.67;;;11.08;83.57
74790;BME280;63318;52.406;13.416;2023-04-29T05:43:22;100557.61;;;11.09;83.64
74790;BME280;63318;52.406;13.416;2023-04-29T05:45:52;100558.50;;;11.12;83.70
74790;BME280;63318;52.406;13.416;2023-04-29T05:48:21;100562.44;;;11.13;83.40
74790;BME280;63318;52.406;13.416;2023-04-29T05:50:50;100562.23;;;11.15;83.52
74790;BME280;63318;52.406;13.416;2023-04-29T05:53:18;100562.93;;;11.17;83.40
74790;BME280;63318;52.406;13.416;2023-04-29T05:55:47;100562.70;;;11.18;83.68
74790;BME280;63318;52.406;13.416;2023-04-29T05:58:15;100563.60;;;11.20;83.47
74790;BME280;63318;52.406;13.416;2023-04-29T06:00:44;100566.81;;;11.21;83.60
74790;BME280;63318;52.406;13.416;2023-04-29T06:03:12;100564.96;;;11.23;83.66
74790;BME280;63318;52.406;13.416;2023-04-29T06:05:40;100568.36;;;11.25;83.72
74790;BME280;63318;52.406;13.416;2023-04-29T06:08:09;100571.75;;;11.27;84.02
74790;BME280;63318;52.406;13.416;2023-04-29T06:10:37;100576.07;;;11.29;84.05
74790;BME280;63318;52.406;13.416;2023-04-29T06:13:06;100576.13;;;11.31;83.84
74790;BME280;63318;52.406;13.416;2023-04-29T06:15:39;100577.80;;;11.33;83.85
74790;BME280;63318;52.406;13.416;2023-04-29T06:18:07;100580.67;;;11.35;83.99
74790;BME280;63318;52.406;13.416;2023-04-29T06:20:38;100580.50;;;11.37;83.82
74790;BME280;63318;52.406;13.416;2023-04-29T06:23:06;100582.98;;;11.39;84.04
74790;BME280;63318;52.406;13.416;2023-04-29T06:25:35;100582.48;;;11.41;84.12
74790;BME280;63318;52.406;13.416;2023-04-29T06:28:05;100585.14;;;11.44;84.18
74790;BME280;63318;52.406;13.416;2023-04-29T06:30:33;100586.09;;;11.46;84.29
74790;BME280;63318;52.406;13.416;2023-04-29T06:33:02;100586.80;;;11.48;84.26
74790;BME280;63318;52.406;13.416;2023-04-29T06:35:31;100589.23;;;11.50;84.27
74790;BME280;63318;52.406;13.416;2023-04-29T06:37:59;100588.34;;;11.53;84.36
74790;BME280;63318;52.406;13.416;2023-04-29T06:40:27;100590.83;;;11.55;84.42
74790;BME280;63318;52.406;13.416;2023-04-29T06:42:56;100590.66;;;11.57;84.67
74790;BME280;63318;52.406;13.416;2023-04-29T06:45:25;100595.58;;;11.59;84.41
74790;BME280;63318;52.406;13.416;2023-04-29T06:47:53;100599.61;;;11.61;84.38
74790;BME280;63318;52.406;13.416;2023-04-29T06:50:21;100602.98;;;11.63;84.41
74790;BME280;63318;52.406;13.416;2023-04-29T06:52:50;100603.70;;;11.65;84.55
74790;BME280;63318;52.406;13.416;2023-04-29T06:55:18;100603.77;;;11.67;84.34
74790;BME280;63318;52.406;13.416;2023-04-29T06:57:46;100607.77;;;11.68;84.40
74790;BME280;63318;52.406;13.416;2023-04-29T07:00:17;100610.77;;;11.70;84.51
74790;BME280;63318;52.406;13.416;2023-04-29T07:02:46;100611.88;;;11.72;84.54
74790;BME280;63318;52.406;13.416;2023-04-29T07:05:15;100614.44;;;11.74;84.44
74790;BME280;63318;52.406;13.416;2023-04-29T07:07:45;100613.66;;;11.75;84.46
74790;BME280;63318;52.406;13.416;2023-04-29T07:10:13;100617.81;;;11.76;84.44
74790;BME280;63318;52.406;13.416;2023-04-29T07:12:41;100618.25;;;11.77;84.46
74790;BME280;63318;52.406;13.416;2023-04-29T07:15:11;100623.83;;;11.77;84.34
74790;BME280;63318;52.406;13.416;2023-04-29T07:17:39;100626.40;;;11.77;84.44
74790;BME280;63318;52.406;13.416;2023-04-29T07:20:10;100632.39;;;11.78;84.48
74790;BME280;63318;52.406;13.416;2023-04-29T07:22:38;100629.44;;;11.79;84.75
74790;BME280;63318;52.406;13.416;2023-04-29T07:25:07;100629.02;;;11.83;84.66
74790;BME280;63318;52.406;13.416;2023-04-29T07:27:36;100632.85;;;11.87;84.96
74790;BME280;63318;52.406;13.416;2023-04-29T07:30:06;100634.56;;;11.90;84.81
74790;BME280;63318;52.406;13.416;2023-04-29T07:32:35;100638.91;;;11.92;84.77
74790;BME280;63318;52.406;13.416;2023-04-29T07:35:04;100638.35;;;11.92;84.55
74790;BME280;63318;52.406;13.416;2023-04-29T07:37:33;100643.25;;;11.90;84.38
74790;BME280;63318;52.406;13.416;2023-04-29T07:40:01;100649.34;;;11.88;84.29
74790;BME280;63318;52.406;13.416;2023-04-29T07:42:29;100655.29;;;11.88;84.54
74790;BME280;63318;52.406;13.416;2023-04-29T07:44:57;100656.41;;;11.86;84.29
74790;BME280;63318;52.406;13.416;2023-04-29T07:47:26;100667.93;;;11.85;84.40
74790;BME280;63318;52.406;13.416;2023-04-29T07:49:54;100669.10;;;11.85;84.20
74790;BME280;63318;52.406;13.416;2023-04-29T07:52:22;100672.73;;;11.82;84.37
74790;BME280;63318;52.406;13.416;2023-04-29T07:54:50;100679.26;;;11.81;84.18
74790;BME280;63318;52.406;13.416;2023-04-29T07:57:19;100678.14;;;11.81;84.23
74790;BME280;63318;52.406;13.416;2023-04-29T07:59:47;100680.71;;;11.80;84.18
74790;BME280;63318;52.406;13.416;2023-04-29T08:02:17;100684.95;;;11.79;84.13
74790;BME280;63318;52.406;13.416;2023-04-29T08:04:46;100691.39;;;11.79;84.18
74790;BME280;63318;52.406;13.416;2023-04-29T08:07:14;100700.30;;;11.79;84.17
74790;BME280;63318;52.406;13.416;2023-04-29T08:09:42;100704.09;;;11.79;84.17
74790;BME280;63318;52.406;13.416;2023-04-29T08:12:11;100705.64;;;11.79;84.13
74790;BME280;63318;52.406;13.416;2023-04-29T08:14:39;100708.55;;;11.77;84.07
74790;BME280;63318;52.406;13.416;2023-04-29T08:17:07;100712.99;;;11.76;84.08
74790;BME280;63318;52.406;13.416;2023-04-29T08:19:35;100721.95;;;11.75;83.92
74790;BME280;63318;52.406;13.416;2023-04-29T08:22:04;100721.41;;;11.73;83.97
74790;BME280;63318;52.406;13.416;2023-04-29T08:24:32;100726.37;;;11.71;83.97
74790;BME280;63318;52.406;13.416;2023-04-29T08:27:00;100729.60;;;11.70;84.06
74790;BME280;63318;52.406;13.416;2023-04-29T08:29:31;100732.55;;;11.69;83.89
74790;BME280;63318;52.406;13.416;2023-04-29T08:31:59;100737.63;;;11.67;83.92
74790;BME280;63318;52.406;13.416;2023-04-29T08:34:27;100742.89;;;11.67;83.94
74790;BME280;63318;52.406;13.416;2023-04-29T08:36:57;100749.23;;;11.67;83.96
74790;BME280;63318;52.406;13.416;2023-04-29T08:39:26;100758.13;;;11.66;83.76
74790;BME280;63318;52.406;13.416;2023-04-29T08:41:58;100761.58;;;11.65;83.92
74790;BME280;63318;52.406;13.416;2023-04-29T08:44:27;100768.43;;;11.65;83.88
74790;BME280;63318;52.406;13.416;2023-04-29T08:46:56;100771.33;;;11.64;83.78
74790;BME280;63318;52.406;13.416;2023-04-29T08:49:25;100774.66;;;11.63;83.92
74790;BME280;63318;52.406;13.416;2023-04-29T08:51:55;100775.27;;;11.62;83.80
74790;BME280;63318;52.406;13.416;2023-04-29T08:54:23;100779.00;;;11.60;83.89
74790;BME280;63318;52.406;13.416;2023-04-29T08:56:52;100783.13;;;11.59;83.80
74790;BME280;63318;52.406;13.416;2023-04-29T08:59:22;100789.52;;;11.59;83.66
74790;BME280;63318;52.406;13.416;2023-04-29T09:01:54;100793.26;;;11.58;83.82
74790;BME280;63318;52.406;13.416;2023-04-29T09:04:31;100803.00;;;11.57;83.69
74790;BME280;63318;52.406;13.416;2023-04-29T09:07:06;100806.04;;;11.57;83.65
74790;BME280;63318;52.406;13.416;2023-04-29T09:09:35;100811.66;;;11.54;83.72
74790;BME280;63318;52.406;13.416;2023-04-29T09:12:04;100812.52;;;11.52;83.49
74790;BME280;63318;52.406;13.416;2023-04-29T09:14:34;100819.63;;;11.50;83.71
74790;BME280;63318;52.406;13.416;2023-04-29T09:17:03;100820.80;;;11.48;83.43
74790;BME280;63318;52.406;13.416;2023-04-29T09:19:33;100826.37;;;11.45;83.57
74790;BME280;63318;52.406;13.416;2023-04-29T09:22:04;100830.33;;;11.42;83.45
74790;BME280;63318;52.406;13.416;2023-04-29T09:24:32;100829.88;;;11.39;83.49
74790;BME280;63318;52.406;13.416;2023-04-29T09:27:04;100831.11;;;11.37;83.42
74790;BME280;63318;52.406;13.416;2023-04-29T09:29:32;100841.09;;;11.36;83.51
74790;BME280;63318;52.406;13.416;2023-04-29T09:32:19;100841.22;;;11.36;83.72
74790;BME280;63318;52.406;13.416;2023-04-29T09:34:47;100844.38;;;11.37;83.78
74790;BME280;63318;52.406;13.416;2023-04-29T09:37:24;100851.34;;;11.37;83.73
74790;BME280;63318;52.406;13.416;2023-04-29T09:39:53;100857.56;;;11.39;83.62
74790;BME280;63318;52.406;13.416;2023-04-29T09:42:22;100856.41;;;11.40;83.68
74790;BME280;63318;52.406;13.416;2023-04-29T09:44:53;100863.75;;;11.42;83.70
74790;BME280;63318;52.406;13.416;2023-04-29T09:47:29;100868.48;;;11.43;83.73
74790;BME280;63318;52.406;13.416;2023-04-29T09:50:11;100874.61;;;11.44;83.73
74790;BME280;63318;52.406;13.416;2023-04-29T09:52:41;100879.17;;;11.44;83.71
74790;BME280;63318;52.406;13.416;2023-04-29T09:55:11;100882.50;;;11.44;83.65
74790;BME280;63318;52.406;13.416;2023-04-29T09:57:41;100886.57;;;11.45;83.55
74790;BME280;63318;52.406;13.416;2023-04-29T10:00:12;100888.02;;;11.46;83.64
74790;BME280;63318;52.406;13.416;2023-04-29T10:02:42;100895.91;;;11.46;83.66
74790;BME280;63318;52.406;13.416;2023-04-29T10:05:14;100896.47;;;11.45;83.43
74790;BME280;63318;52.406;13.416;2023-04-29T10:07:43;100904.64;;;11.44;83.46
74790;BME280;63318;52.406;13.416;2023-04-29T10:10:13;100904.59;;;11.42;83.41
74790;BME280;63318;52.406;13.416;2023-04-29T10:12:42;100908.80;;;11.39;83.24
74790;BME280;63318;52.406;13.416;2023-04-29T10:15:22;100911.64;;;11.37;83.30
74790;BME280;63318;52.406;13.416;2023-04-29T10:17:58;100916.59;;;11.35;83.24
74790;BME280;63318;52.406;13.416;2023-04-29T10:20:30;100917.85;;;11.34;83.36
74790;BME280;63318;52.406;13.416;2023-04-29T10:22:59;100923.83;;;11.32;83.39
74790;BME280;63318;52.406;13.416;2023-04-29T10:25:29;100924.81;;;11.32;83.39
74790;BME280;63318;52.406;13.416;2023-04-29T10:27:59;100925.09;;;11.33;83.38
74790;BME280;63318;52.406;13.416;2023-04-29T10:30:32;100921.33;;;11.33;83.36
74790;BME280;63318;52.406;13.416;2023-04-29T10:33:01;100925.42;;;11.34;83.23
74790;BME280;63318;52.406;13.416;2023-04-29T10:35:31;100928.42;;;11.34;83.21
74790;BME280;63318;52.406;13.416;2023-04-29T10:38:00;100931.77;;;11.36;83.47
74790;BME280;63318;52.406;13.416;2023-04-29T10:40:38;100938.63;;;11.38;83.23
74790;BME280;63318;52.406;13.416;2023-04-29T10:43:08;100942.97;;;11.39;83.35
74790;BME280;63318;52.406;13.416;2023-04-29T10:45:37;100944.25;;;11.40;83.37
74790;BME280;63318;52.406;13.416;2023-04-29T10:48:16;100952.70;;;11.43;83.27
74790;BME280;63318;52.406;13.416;2023-04-29T10:51:03;100952.14;;;11.42;83.21
74790;BME280;63318;52.406;13.416;2023-04-29T10:53:34;100959.55;;;11.41;83.25
74790;BME280;63318;52.406;13.416;2023-04-29T10:56:08;100959.38;;;11.40;83.05
74790;BME280;63318;52.406;13.416;2023-04-29T10:58:41;100960.43;;;11.37;82.91
74790;BME280;63318;52.406;13.416;2023-04-29T11:01:12;100962.20;;;11.36;82.99
74790;BME280;63318;52.406;13.416;2023-04-29T11:03:48;100965.66;;;11.38;83.18
74790;BME280;63318;52.406;13.416;2023-04-29T11:06:17;100970.34;;;11.40;82.97
74790;BME280;63318;52.406;13.416;2023-04-29T11:08:45;100970.73;;;11.41;83.03
74790;BME280;63318;52.406;13.416;2023-04-29T11:11:15;100974.91;;;11.42;82.89
74790;BME280;63318;52.406;13.416;2023-04-29T11:13:46;100973.29;;;11.41;82.69
74790;BME280;63318;52.406;13.416;2023-04-29T11:16:15;100973.39;;;11.40;82.72
74790;BME280;63318;52.406;13.416;2023-04-29T11:19:06;100975.52;;;11.41;82.78
74790;BME280;63318;52.406;13.416;2023-04-29T11:21:36;100978.19;;;11.40;82.69
74790;BME280;63318;52.406;13.416;2023-04-29T11:24:05;100980.47;;;11.41;82.66
74790;BME280;63318;52.406;13.416;2023-04-29T11:26:34;100986.71;;;11.45;82.83
74790;BME280;63318;52.406;13.416;2023-04-29T11:29:03;100988.28;;;11.52;82.83
74790;BME280;63318;52.406;13.416;2023-04-29T11:31:32;100989.08;;;11.60;82.84
74790;BME280;63318;52.406;13.416;2023-04-29T11:34:02;100996.75;;;11.67;82.59
74790;BME280;63318;52.406;13.416;2023-04-29T11:36:31;100998.22;;;11.73;82.64
74790;BME280;63318;52.406;13.416;2023-04-29T11:39:01;101000.73;;;11.79;82.57
74790;BME280;63318;52.406;13.416;2023-04-29T11:41:30;101006.98;;;11.85;82.52
74790;BME280;63318;52.406;13.416;2023-04-29T11:44:00;101011.50;;;11.90;82.31
74790;BME280;63318;52.406;13.416;2023-04-29T11:46:31;101013.23;;;11.96;82.16
74790;BME280;63318;52.406;13.416;2023-04-29T11:48:59;101016.80;;;12.07;82.49
74790;BME280;63318;52.406;13.416;2023-04-29T11:51:28;101012.30;;;12.19;82.20
74790;BME280;63318;52.406;13.416;2023-04-29T11:53:57;101016.91;;;12.32;82.15
74790;BME280;63318;52.406;13.416;2023-04-29T11:56:25;101018.98;;;12.46;82.22
74790;BME280;63318;52.406;13.416;2023-04-29T11:58:58;101021.64;;;12.60;81.93
74790;BME280;63318;52.406;13.416;2023-04-29T12:01:25;101021.72;;;12.73;81.78
74790;BME280;63318;52.406;13.416;2023-04-29T12:03:57;101017.07;;;12.83;81.82
74790;BME280;63318;52.406;13.416;2023-04-29T12:06:29;101021.84;;;12.95;81.21
74790;BME280;63318;52.406;13.416;2023-04-29T12:08:59;101023.88;;;13.06;80.75
74790;BME280;63318;52.406;13.416;2023-04-29T12:11:27;101028.56;;;13.14;80.48
74790;BME280;63318;52.406;13.416;2023-04-29T12:13:56;101029.08;;;13.22;80.16
74790;BME280;63318;52.406;13.416;2023-04-29T12:16:24;101030.01;;;13.29;79.95
74790;BME280;63318;52.406;13.416;2023-04-29T12:18:53;101029.48;;;13.34;79.57
74790;BME280;63318;52.406;13.416;2023-04-29T12:21:23;101036.05;;;13.40;79.41
74790;BME280;63318;52.406;13.416;2023-04-29T12:23:52;101033.67;;;13.45;79.38
74790;BME280;63318;52.406;13.416;2023-04-29T12:26:20;101034.43;;;13.49;79.40
74790;BME280;63318;52.406;13.416;2023-04-29T12:28:52;101036.27;;;13.52;79.26
74790;BME280;63318;52.406;13.416;2023-04-29T12:31:20;101037.49;;;13.54;79.01
74790;BME280;63318;52.406;13.416;2023-04-29T12:33:48;101040.50;;;13.55;79.00
74790;BME280;63318;52.406;13.416;2023-04-29T12:36:20;101045.25;;;13.53;78.69
74790;BME280;63318;52.406;13.416;2023-04-29T12:38:50;101049.23;;;13.50;78.41
74790;BME280;63318;52.406;13.416;2023-04-29T12:41:19;101055.08;;;13.44;78.33
74790;BME280;63318;52.406;13.416;2023-04-29T12:43:50;101056.98;;;13.37;78.14
74790;BME280;63318;52.406;13.416;2023-04-29T12:46:21;101055.56;;;13.29;77.75
74790;BME280;63318;52.406;13.416;2023-04-29T12:48:49;101058.77;;;13.23;77.86
74790;BME280;63318;52.406;13.416;2023-04-29T12:51:18;101060.24;;;13.17;77.86
74790;BME280;63318;52.406;13.416;2023-04-29T12:53:46;101059.25;;;13.12;77.92